Wetterdaten: Woche 19.02.18 - 25.02.18 (KW8)
Datum Zeit Temp. Aussen Temp. o. S. +5cm Feuchte Auss BlattFeu 1 Luftdruck Regen Sonnenschein Regendauer Solar Windben Empfang
19.02.2018 00:00 -0,2 C -1,0 C -3,3 C 87 % 0 lf 1022,4 hPa 0,0 l/m 0,00 h 0,00 h 0 W/m 8,3 km/h (2 Bft) 97,80 %
19.02.2018 01:00 -0,8 C -1,1 C -3,5 C 89 % 0 lf 1022,0 hPa 0,0 l/m 0,00 h 0,00 h 0 W/m 7,9 km/h (2 Bft) 97,58 %
19.02.2018 02:00 -0,9 C -1,1 C -2,8 C 90 % 0 lf 1021,6 hPa 0,0 l/m 0,00 h 0,00 h 0 W/m 11,0 km/h (2 Bft) 96,31 %
19.02.2018 03:00 -1,0 C -1,1 C -2,8 C 91 % 0 lf 1021,2 hPa 0,0 l/m 0,00 h 0,00 h 0 W/m 13,2 km/h (3 Bft) 95,05 %
19.02.2018 04:00 -0,9 C -1,1 C -2,4 C 92 % 0 lf 1020,8 hPa 0,0 l/m 0,00 h 0,00 h 0 W/m 12,5 km/h (3 Bft) 97,38 %
19.02.2018 05:00 -0,9 C -0,9 C -2,1 C 92 % 0 lf 1020,2 hPa 0,0 l/m 0,00 h 0,00 h 0 W/m 13,9 km/h (3 Bft) 96,69 %
19.02.2018 06:00 -0,6 C -0,6 C -1,8 C 92 % 0 lf 1019,8 hPa 0,0 l/m 0,00 h 0,00 h 0 W/m 12,8 km/h (3 Bft) 96,30 %
19.02.2018 07:00 -0,6 C -0,6 C -1,7 C 91 % 0 lf 1019,8 hPa 0,0 l/m 0,00 h 0,00 h 6 W/m 12,2 km/h (2 Bft) 96,47 %
19.02.2018 08:00 -0,5 C -0,3 C -1,4 C 91 % 0 lf 1019,8 hPa 0,0 l/m 0,00 h 0,00 h 30 W/m 9,8 km/h (2 Bft) 94,80 %
19.02.2018 09:00 -0,2 C 0,5 C -0,3 C 90 % 0 lf 1019,6 hPa 0,0 l/m 0,00 h 0,00 h 97 W/m 13,2 km/h (3 Bft) 98,79 %
19.02.2018 10:00 0,4 C 1,4 C 0,9 C 88 % 0 lf 1019,3 hPa 0,0 l/m 0,00 h 0,00 h 131 W/m 12,4 km/h (3 Bft) 96,20 %
19.02.2018 11:00 1,2 C 2,4 C 1,9 C 86 % 0 lf 1019,1 hPa 0,0 l/m 0,00 h 0,00 h 156 W/m 11,0 km/h (2 Bft) 94,77 %
19.02.2018 12:00 1,8 C 3,3 C 2,8 C 84 % 0 lf 1018,9 hPa 0,0 l/m 0,13 h 0,00 h 201 W/m 11,6 km/h (2 Bft) 97,51 %
19.02.2018 13:00 2,9 C 6,1 C 4,3 C 80 % 0 lf 1018,4 hPa 0,0 l/m 0,97 h 0,00 h 292 W/m 10,5 km/h (2 Bft) 97,28 %
19.02.2018 14:00 4,0 C 7,6 C 5,0 C 75 % 0 lf 1017,8 hPa 0,0 l/m 0,87 h 0,00 h 297 W/m 9,0 km/h (2 Bft) 95,57 %
19.02.2018 15:00 4,6 C 6,2 C 4,7 C 71 % 0 lf 1017,4 hPa 0,0 l/m 1,00 h 0,00 h 184 W/m 7,6 km/h (2 Bft) 95,12 %
19.02.2018 16:00 4,3 C 4,7 C 3,3 C 72 % 0 lf 1017,0 hPa 0,0 l/m 0,47 h 0,00 h 88 W/m 4,8 km/h (1 Bft) 97,43 %
19.02.2018 17:00 3,9 C 3,6 C 2,2 C 74 % 0 lf 1016,9 hPa 0,0 l/m 0,00 h 0,00 h 22 W/m 2,9 km/h (1 Bft) 96,12 %
19.02.2018 18:00 3,2 C 2,4 C 0,9 C 75 % 0 lf 1016,8 hPa 0,0 l/m 0,00 h 0,00 h 0 W/m 1,1 km/h (0 Bft) 95,68 %
19.02.2018 19:00 2,8 C 2,7 C 0,6 C 77 % 0 lf 1016,7 hPa 0,0 l/m 0,00 h 0,00 h 0 W/m 0,2 km/h (0 Bft) 97,83 %
19.02.2018 20:00 2,5 C 2,0 C 0,4 C 78 % 0 lf 1016,8 hPa 0,0 l/m 0,00 h 0,00 h 0 W/m 0,0 km/h (0 Bft) 96,74 %
19.02.2018 21:00 2,3 C 1,6 C 0,3 C 81 % 0 lf 1016,7 hPa 0,0 l/m 0,00 h 0,00 h 0 W/m 0,0 km/h (0 Bft) 94,30 %
19.02.2018 22:00 1,9 C 1,1 C -0,1 C 82 % 0 lf 1016,4 hPa 0,0 l/m 0,00 h 0,00 h 0 W/m 0,0 km/h (0 Bft) 98,22 %
19.02.2018 23:00 1,6 C 1,0 C -0,2 C 84 % 0 lf 1016,4 hPa 0,0 l/m 0,00 h 0,00 h 0 W/m 0,0 km/h (0 Bft) 97,29 %
20.02.2018 00:00 1,3 C 0,5 C -0,7 C 84 % 0 lf 1016,6 hPa 0,0 l/m 0,00 h 0,00 h 0 W/m 0,0 km/h (0 Bft) 95,94 %
20.02.2018 01:00 0,7 C -1,3 C -2,6 C 85 % 0 lf 1016,3 hPa 0,0 l/m 0,00 h 0,00 h 0 W/m 0,0 km/h (0 Bft) 95,16 %
20.02.2018 02:00 -0,4 C -2,4 C -3,8 C 86 % 2 lf 1016,2 hPa 0,0 l/m 0,00 h 0,00 h 0 W/m 0,0 km/h (0 Bft) 96,44 %
20.02.2018 03:00 -1,5 C -3,4 C -4,5 C 87 % 6 lf 1016,3 hPa 0,0 l/m 0,00 h 0,00 h 0 W/m 0,0 km/h (0 Bft) 97,44 %
20.02.2018 04:00 -2,2 C -3,9 C -4,9 C 88 % 14 lf 1016,6 hPa 0,0 l/m 0,00 h 0,00 h 0 W/m 0,0 km/h (0 Bft) 96,37 %
20.02.2018 05:00 -2,5 C -4,1 C -5,2 C 90 % 3 lf 1016,8 hPa 0,0 l/m 0,00 h 0,00 h 0 W/m 0,0 km/h (0 Bft) 98,60 %
20.02.2018 06:00 -3,0 C -4,7 C -5,9 C 91 % 1 lf 1016,7 hPa 0,0 l/m 0,00 h 0,00 h 0 W/m 0,0 km/h (0 Bft) 94,50 %
20.02.2018 07:00 -3,4 C -5,0 C -6,1 C 91 % 1 lf 1017,0 hPa 0,0 l/m 0,00 h 0,00 h 9 W/m 0,8 km/h (0 Bft) 95,62 %
20.02.2018 08:00 -3,4 C -3,3 C -4,7 C 93 % 1 lf 1017,3 hPa 0,0 l/m 0,60 h 0,00 h 69 W/m 1,5 km/h (1 Bft) 98,15 %
20.02.2018 09:00 -1,9 C 3,6 C -1,3 C 94 % 10 lf 1017,2 hPa 0,0 l/m 1,00 h 0,00 h 219 W/m 7,0 km/h (2 Bft) 96,15 %
20.02.2018 10:00 1,2 C 10,3 C 0,6 C 94 % 7 lf 1017,2 hPa 0,0 l/m 1,00 h 0,00 h 353 W/m 10,3 km/h (2 Bft) 96,28 %
20.02.2018 11:00 3,2 C 14,3 C 2,5 C 84 % 0 lf 1017,6 hPa 0,0 l/m 1,00 h 0,00 h 409 W/m 9,1 km/h (2 Bft) 98,37 %
20.02.2018 12:00 4,7 C 15,8 C 3,5 C 76 % 0 lf 1017,5 hPa 0,0 l/m 1,00 h 0,00 h 460 W/m 9,0 km/h (2 Bft) 94,92 %
20.02.2018 13:00 6,2 C 12,3 C 5,5 C 69 % 0 lf 1017,1 hPa 0,0 l/m 1,00 h 0,00 h 392 W/m 11,6 km/h (2 Bft) 98,01 %
20.02.2018 14:00 6,0 C 8,6 C 5,8 C 68 % 0 lf 1016,9 hPa 0,0 l/m 0,83 h 0,00 h 236 W/m 12,0 km/h (2 Bft) 97,35 %
20.02.2018 15:00 5,6 C 6,7 C 5,0 C 68 % 0 lf 1017,0 hPa 0,0 l/m 0,13 h 0,00 h 141 W/m 14,8 km/h (3 Bft) 96,33 %
20.02.2018 16:00 5,2 C 5,4 C 4,1 C 69 % 0 lf 1017,1 hPa 0,0 l/m 0,00 h 0,00 h 78 W/m 18,7 km/h (3 Bft) 96,09 %
20.02.2018 17:00 4,7 C 4,4 C 3,0 C 71 % 0 lf 1017,5 hPa 0,0 l/m 0,00 h 0,00 h 26 W/m 14,9 km/h (3 Bft) 95,81 %
20.02.2018 18:00 3,8 C 2,8 C 0,6 C 72 % 0 lf 1018,2 hPa 0,0 l/m 0,00 h 0,00 h 0 W/m 13,8 km/h (3 Bft) 97,22 %
20.02.2018 19:00 2,6 C 1,5 C 0,1 C 75 % 0 lf 1018,9 hPa 0,0 l/m 0,00 h 0,00 h 0 W/m 11,6 km/h (2 Bft) 95,86 %
20.02.2018 20:00 1,5 C 0,4 C -1,4 C 78 % 0 lf 1019,5 hPa 0,0 l/m 0,00 h 0,00 h 0 W/m 8,6 km/h (2 Bft) 95,01 %
20.02.2018 21:00 0,8 C -0,3 C -1,9 C 81 % 0 lf 1019,9 hPa 0,0 l/m 0,00 h 0,00 h 0 W/m 10,6 km/h (2 Bft) 96,16 %
20.02.2018 22:00 0,3 C -0,9 C -2,2 C 81 % 0 lf 1020,4 hPa 0,0 l/m 0,00 h 0,00 h 0 W/m 9,1 km/h (2 Bft) 99,14 %
20.02.2018 23:00 -0,3 C -1,5 C -2,8 C 83 % 0 lf 1020,9 hPa 0,0 l/m 0,00 h 0,00 h 0 W/m 9,3 km/h (2 Bft) 94,45 %
21.02.2018 00:00 -0,9 C -2,5 C -3,9 C 85 % 0 lf 1021,6 hPa 0,0 l/m 0,00 h 0,00 h 0 W/m 7,4 km/h (2 Bft) 95,93 %
21.02.2018 01:00 -1,3 C -2,0 C -3,1 C 87 % 0 lf 1022,1 hPa 0,0 l/m 0,00 h 0,00 h 0 W/m 11,4 km/h (2 Bft) 97,65 %
21.02.2018 02:00 -1,7 C -2,8 C -4,3 C 87 % 0 lf 1022,0 hPa 0,0 l/m 0,00 h 0,00 h 0 W/m 10,5 km/h (2 Bft) 95,50 %
21.02.2018 03:00 -1,9 C -2,3 C -3,8 C 88 % 0 lf 1022,3 hPa 0,0 l/m 0,00 h 0,00 h 0 W/m 11,8 km/h (2 Bft) 98,65 %
21.02.2018 04:00 -1,9 C -2,5 C -3,6 C 88 % 0 lf 1022,9 hPa 0,0 l/m 0,00 h 0,00 h 0 W/m 11,5 km/h (2 Bft) 95,55 %
21.02.2018 05:00 -1,8 C -2,2 C -3,3 C 89 % 0 lf 1023,1 hPa 0,0 l/m 0,00 h 0,00 h 0 W/m 13,0 km/h (3 Bft) 95,46 %
21.02.2018 06:00 -1,8 C -2,2 C -4,1 C 90 % 0 lf 1023,1 hPa 0,0 l/m 0,00 h 0,00 h 0 W/m 16,4 km/h (3 Bft) 96,81 %
21.02.2018 07:00 -1,4 C -1,2 C -2,3 C 91 % 0 lf 1023,7 hPa 0,0 l/m 0,00 h 0,00 h 8 W/m 10,8 km/h (2 Bft) 97,76 %
21.02.2018 08:00 -1,2 C -0,9 C -2,3 C 90 % 0 lf 1023,9 hPa 0,0 l/m 0,43 h 0,00 h 65 W/m 8,2 km/h (2 Bft) 95,10 %
21.02.2018 09:00 -0,8 C 3,9 C -0,7 C 90 % 0 lf 1024,1 hPa 0,0 l/m 1,00 h 0,00 h 186 W/m 9,6 km/h (2 Bft) 96,34 %
21.02.2018 10:00 0,5 C 8,0 C 0,5 C 87 % 0 lf 1024,0 hPa 0,0 l/m 1,00 h 0,00 h 312 W/m 12,9 km/h (3 Bft) 97,26 %
21.02.2018 11:00 2,1 C 10,1 C 2,3 C 80 % 0 lf 1024,0 hPa 0,0 l/m 1,00 h 0,00 h 403 W/m 16,8 km/h (3 Bft) 94,68 %
21.02.2018 12:00 4,0 C 12,0 C 3,0 C 69 % 0 lf 1023,9 hPa 0,0 l/m 1,00 h 0,00 h 457 W/m 22,3 km/h (4 Bft) 97,99 %
21.02.2018 13:00 4,5 C 11,3 C 3,2 C 65 % 0 lf 1023,5 hPa 0,0 l/m 1,00 h 0,00 h 444 W/m 21,6 km/h (4 Bft) 94,60 %
21.02.2018 14:00 4,8 C 10,1 C 3,6 C 63 % 0 lf 1022,9 hPa 0,0 l/m 1,00 h 0,00 h 383 W/m 24,6 km/h (4 Bft) 99,15 %
21.02.2018 15:00 5,0 C 9,2 C 3,6 C 62 % 0 lf 1022,5 hPa 0,0 l/m 1,00 h 0,00 h 275 W/m 25,2 km/h (4 Bft) 95,24 %
21.02.2018 16:00 4,5 C 5,7 C 2,8 C 63 % 0 lf 1022,3 hPa 0,0 l/m 0,93 h 0,00 h 127 W/m 24,0 km/h (4 Bft) 97,23 %
21.02.2018 17:00 3,5 C 3,0 C 1,6 C 67 % 0 lf 1022,3 hPa 0,0 l/m 0,33 h 0,00 h 33 W/m 18,8 km/h (3 Bft) 97,44 %
21.02.2018 18:00 2,2 C 0,6 C -1,2 C 71 % 0 lf 1022,5 hPa 0,0 l/m 0,00 h 0,00 h 5 W/m 10,4 km/h (2 Bft) 94,79 %
21.02.2018 19:00 1,0 C 0,0 C -1,7 C 74 % 0 lf 1022,8 hPa 0,0 l/m 0,00 h 0,00 h 0 W/m 11,9 km/h (2 Bft) 95,23 %
21.02.2018 20:00 0,3 C -1,0 C -2,4 C 76 % 0 lf 1022,8 hPa 0,0 l/m 0,00 h 0,00 h 0 W/m 9,9 km/h (2 Bft) 98,93 %
21.02.2018 21:00 0,0 C -0,5 C -2,2 C 79 % 0 lf 1022,9 hPa 0,0 l/m 0,00 h 0,00 h 0 W/m 21,9 km/h (4 Bft) 96,15 %
21.02.2018 22:00 -0,0 C -0,7 C -2,3 C 80 % 0 lf 1023,1 hPa 0,0 l/m 0,00 h 0,00 h 0 W/m 21,5 km/h (4 Bft) 96,30 %
21.02.2018 23:00 -0,5 C -1,2 C -3,0 C 81 % 0 lf 1023,0 hPa 0,0 l/m 0,00 h 0,00 h 0 W/m 18,3 km/h (3 Bft) 95,08 %
22.02.2018 00:00 -0,9 C -1,5 C -3,3 C 82 % 0 lf 1023,1 hPa 0,0 l/m 0,00 h 0,00 h 0 W/m 19,9 km/h (4 Bft) 93,22 %
22.02.2018 01:00 -1,3 C -1,8 C -3,6 C 84 % 0 lf 1022,9 hPa 0,0 l/m 0,00 h 0,00 h 0 W/m 21,3 km/h (4 Bft) 96,46 %
22.02.2018 02:00 -1,6 C -2,1 C -3,8 C 85 % 0 lf 1022,8 hPa 0,0 l/m 0,00 h 0,00 h 0 W/m 20,3 km/h (4 Bft) 98,06 %
22.02.2018 03:00 -1,7 C -2,2 C -3,9 C 85 % 0 lf 1022,5 hPa 0,0 l/m 0,00 h 0,00 h 0 W/m 19,5 km/h (3 Bft) 94,51 %
22.02.2018 04:00 -1,8 C -2,2 C -3,9 C 85 % 0 lf 1022,2 hPa 0,0 l/m 0,00 h 0,00 h 0 W/m 23,9 km/h (4 Bft) 97,24 %
22.02.2018 05:00 -2,0 C -2,4 C -4,2 C 85 % 0 lf 1022,3 hPa 0,0 l/m 0,00 h 0,00 h 0 W/m 21,2 km/h (4 Bft) 96,02 %
22.02.2018 06:00 -2,3 C -2,9 C -4,6 C 86 % 0 lf 1022,6 hPa 0,0 l/m 0,00 h 0,00 h 0 W/m 17,9 km/h (3 Bft) 98,08 %
22.02.2018 07:00 -2,6 C -3,1 C -4,9 C 86 % 0 lf 1022,8 hPa 0,0 l/m 0,00 h 0,00 h 11 W/m 17,0 km/h (3 Bft) 94,22 %
22.02.2018 08:00 -2,3 C -1,9 C -3,7 C 87 % 0 lf 1023,0 hPa 0,0 l/m 0,80 h 0,00 h 83 W/m 19,5 km/h (3 Bft) 96,94 %
22.02.2018 09:00 -0,6 C 4,6 C -0,4 C 84 % 0 lf 1023,2 hPa 0,0 l/m 1,00 h 0,00 h 241 W/m 21,2 km/h (4 Bft) 95,83 %
22.02.2018 10:00 1,7 C 7,9 C 0,9 C 74 % 0 lf 1023,1 hPa 0,0 l/m 1,00 h 0,00 h 368 W/m 29,7 km/h (5 Bft) 96,30 %
22.02.2018 11:00 3,4 C 10,3 C 3,1 C 67 % 0 lf 1023,0 hPa 0,0 l/m 1,00 h 0,00 h 447 W/m 29,2 km/h (5 Bft) 97,93 %
22.02.2018 12:00 4,6 C 10,8 C 3,2 C 62 % 0 lf 1022,7 hPa 0,0 l/m 1,00 h 0,00 h 490 W/m 35,1 km/h (5 Bft) 97,08 %
22.02.2018 13:00 5,4 C 11,8 C 3,4 C 58 % 0 lf 1022,1 hPa 0,0 l/m 1,00 h 0,00 h 471 W/m 34,4 km/h (5 Bft) 98,43 %
22.02.2018 14:00 5,9 C 11,4 C 4,2 C 54 % 0 lf 1021,3 hPa 0,0 l/m 1,00 h 0,00 h 410 W/m 32,7 km/h (5 Bft) 92,49 %
22.02.2018 15:00 5,7 C 10,0 C 3,6 C 55 % 0 lf 1020,8 hPa 0,0 l/m 1,00 h 0,00 h 297 W/m 35,7 km/h (5 Bft) 97,14 %
22.02.2018 16:00 4,6 C 5,8 C 2,2 C 57 % 0 lf 1020,6 hPa 0,0 l/m 0,93 h 0,00 h 139 W/m 33,1 km/h (5 Bft) 97,44 %
22.02.2018 17:00 3,2 C 2,8 C 0,7 C 62 % 0 lf 1020,7 hPa 0,0 l/m 0,00 h 0,00 h 30 W/m 28,8 km/h (5 Bft) 97,58 %
22.02.2018 18:00 1,9 C 1,1 C -0,7 C 68 % 0 lf 1021,0 hPa 0,0 l/m 0,00 h 0,00 h 6 W/m 25,3 km/h (4 Bft) 96,73 %
22.02.2018 19:00 0,9 C 0,3 C -1,6 C 72 % 0 lf 1021,6 hPa 0,0 l/m 0,00 h 0,00 h 0 W/m 27,6 km/h (4 Bft) 96,37 %
22.02.2018 20:00 0,2 C -0,6 C -2,2 C 74 % 0 lf 1021,9 hPa 0,0 l/m 0,00 h 0,00 h 0 W/m 21,4 km/h (4 Bft) 94,31 %
22.02.2018 21:00 -0,5 C -1,1 C -3,1 C 75 % 0 lf 1022,0 hPa 0,0 l/m 0,00 h 0,00 h 0 W/m 17,1 km/h (3 Bft) 97,29 %
22.02.2018 22:00 -1,0 C -1,3 C -3,4 C 76 % 0 lf 1022,0 hPa 0,0 l/m 0,00 h 0,00 h 0 W/m 15,6 km/h (3 Bft) 97,58 %
22.02.2018 23:00 -1,2 C -2,3 C -4,3 C 76 % 0 lf 1022,1 hPa 0,0 l/m 0,00 h 0,00 h 0 W/m 11,6 km/h (2 Bft) 95,17 %
23.02.2018 00:00 -2,0 C -3,2 C -5,1 C 79 % 0 lf 1021,8 hPa 0,0 l/m 0,00 h 0,00 h 0 W/m 12,4 km/h (3 Bft) 96,39 %
23.02.2018 01:00 -2,2 C -3,0 C -4,5 C 83 % 0 lf 1021,5 hPa 0,0 l/m 0,00 h 0,00 h 0 W/m 14,4 km/h (3 Bft) 94,98 %
23.02.2018 02:00 -2,2 C -2,9 C -4,5 C 84 % 0 lf 1021,4 hPa 0,0 l/m 0,00 h 0,00 h 0 W/m 17,6 km/h (3 Bft) 97,37 %
23.02.2018 03:00 -2,2 C -2,9 C -4,4 C 85 % 0 lf 1021,0 hPa 0,0 l/m 0,00 h 0,00 h 0 W/m 19,7 km/h (3 Bft) 96,93 %
23.02.2018 04:00 -2,1 C -2,6 C -4,3 C 86 % 0 lf 1020,9 hPa 0,0 l/m 0,00 h 0,00 h 0 W/m 22,4 km/h (4 Bft) 98,01 %
23.02.2018 05:00 -2,4 C -3,1 C -4,7 C 86 % 0 lf 1020,9 hPa 0,0 l/m 0,00 h 0,00 h 0 W/m 18,8 km/h (3 Bft) 94,42 %
23.02.2018 06:00 -2,8 C -3,8 C -5,3 C 87 % 0 lf 1021,2 hPa 0,0 l/m 0,00 h 0,00 h 0 W/m 14,7 km/h (3 Bft) 97,39 %
23.02.2018 07:00 -3,1 C -3,8 C -5,2 C 88 % 0 lf 1021,2 hPa 0,0 l/m 0,10 h 0,00 h 13 W/m 16,7 km/h (3 Bft) 97,51 %
23.02.2018 08:00 -2,8 C -2,4 C -4,0 C 89 % 0 lf 1021,5 hPa 0,0 l/m 1,00 h 0,00 h 90 W/m 21,6 km/h (4 Bft) 95,49 %
23.02.2018 09:00 -1,3 C 4,3 C -0,8 C 82 % 0 lf 1021,7 hPa 0,0 l/m 1,00 h 0,00 h 252 W/m 25,6 km/h (4 Bft) 95,61 %
23.02.2018 10:00 0,7 C 6,9 C 0,2 C 65 % 0 lf 1021,7 hPa 0,0 l/m 1,00 h 0,00 h 382 W/m 31,2 km/h (5 Bft) 98,09 %
23.02.2018 11:00 1,9 C 7,8 C 1,8 C 58 % 0 lf 1021,6 hPa 0,0 l/m 1,00 h 0,00 h 469 W/m 32,0 km/h (5 Bft) 95,77 %
23.02.2018 12:00 3,1 C 10,1 C 1,8 C 54 % 0 lf 1021,0 hPa 0,0 l/m 1,00 h 0,00 h 508 W/m 32,4 km/h (5 Bft) 97,75 %
23.02.2018 13:00 4,0 C 10,8 C 2,1 C 53 % 0 lf 1020,5 hPa 0,0 l/m 1,00 h 0,00 h 492 W/m 31,8 km/h (5 Bft) 96,50 %
23.02.2018 14:00 4,6 C 10,6 C 2,8 C 51 % 0 lf 1020,0 hPa 0,0 l/m 1,00 h 0,00 h 429 W/m 35,8 km/h (5 Bft) 97,77 %
23.02.2018 15:00 4,4 C 9,3 C 2,2 C 51 % 0 lf 1019,6 hPa 0,0 l/m 1,00 h 0,00 h 314 W/m 34,1 km/h (5 Bft) 93,98 %
23.02.2018 16:00 3,4 C 4,8 C 1,1 C 53 % 0 lf 1019,4 hPa 0,0 l/m 1,00 h 0,00 h 149 W/m 36,3 km/h (5 Bft) 95,13 %
23.02.2018 17:00 2,0 C 1,6 C -0,2 C 56 % 0 lf 1019,5 hPa 0,0 l/m 0,27 h 0,00 h 34 W/m 30,5 km/h (5 Bft) 96,78 %
23.02.2018 18:00 0,9 C 0,4 C -1,7 C 60 % 0 lf 1019,8 hPa 0,0 l/m 0,00 h 0,00 h 6 W/m 27,6 km/h (4 Bft) 95,48 %
23.02.2018 19:00 0,1 C -0,6 C -2,4 C 64 % 0 lf 1019,9 hPa 0,0 l/m 0,00 h 0,00 h 0 W/m 26,0 km/h (4 Bft) 97,44 %
23.02.2018 20:00 -0,5 C -1,1 C -3,0 C 67 % 0 lf 1020,2 hPa 0,0 l/m 0,00 h 0,00 h 0 W/m 25,6 km/h (4 Bft) 97,37 %
23.02.2018 21:00 -0,9 C -1,4 C -3,2 C 69 % 0 lf 1020,5 hPa 0,0 l/m 0,00 h 0,00 h 0 W/m 23,8 km/h (4 Bft) 92,74 %
23.02.2018 22:00 -1,5 C -2,2 C -4,2 C 70 % 0 lf 1020,5 hPa 0,0 l/m 0,00 h 0,00 h 0 W/m 20,1 km/h (4 Bft) 98,01 %
23.02.2018 23:00 -2,1 C -2,5 C -4,3 C 70 % 0 lf 1020,4 hPa 0,0 l/m 0,00 h 0,00 h 0 W/m 25,4 km/h (4 Bft) 97,48 %
24.02.2018 00:00 -2,5 C -3,1 C -4,8 C 70 % 0 lf 1020,7 hPa 0,0 l/m 0,00 h 0,00 h 0 W/m 24,9 km/h (4 Bft) 91,60 %
24.02.2018 01:00 -3,0 C -3,4 C -5,1 C 70 % 0 lf 1021,0 hPa 0,0 l/m 0,00 h 0,00 h 0 W/m 21,3 km/h (4 Bft) 96,37 %
24.02.2018 02:00 -3,5 C -4,1 C -5,9 C 70 % 0 lf 1021,2 hPa 0,0 l/m 0,00 h 0,00 h 0 W/m 17,2 km/h (3 Bft) 96,08 %
24.02.2018 03:00 -4,1 C -4,7 C -6,3 C 72 % 0 lf 1021,4 hPa 0,0 l/m 0,00 h 0,00 h 0 W/m 18,4 km/h (3 Bft) 96,31 %
24.02.2018 04:00 -4,5 C -5,1 C -6,7 C 73 % 0 lf 1021,7 hPa 0,0 l/m 0,00 h 0,00 h 0 W/m 19,4 km/h (3 Bft) 97,28 %
24.02.2018 05:00 -4,4 C -4,6 C -6,1 C 72 % 0 lf 1021,9 hPa 0,0 l/m 0,00 h 0,00 h 0 W/m 22,3 km/h (4 Bft) 98,47 %
24.02.2018 06:00 -4,6 C -5,1 C -6,7 C 73 % 0 lf 1022,1 hPa 0,0 l/m 0,00 h 0,00 h 0 W/m 17,7 km/h (3 Bft) 94,24 %
24.02.2018 07:00 -4,7 C -5,0 C -6,5 C 72 % 0 lf 1022,5 hPa 0,0 l/m 0,00 h 0,00 h 13 W/m 17,1 km/h (3 Bft) 95,99 %
24.02.2018 08:00 -4,2 C -3,6 C -5,1 C 70 % 0 lf 1022,9 hPa 0,0 l/m 0,90 h 0,00 h 97 W/m 22,3 km/h (4 Bft) 99,07 %
24.02.2018 09:00 -2,0 C 3,8 C -1,5 C 64 % 0 lf 1023,2 hPa 0,0 l/m 1,00 h 0,00 h 266 W/m 26,5 km/h (4 Bft) 94,45 %
24.02.2018 10:00 0,8 C 7,4 C 0,6 C 55 % 0 lf 1023,5 hPa 0,0 l/m 1,00 h 0,00 h 376 W/m 29,7 km/h (5 Bft) 96,59 %
24.02.2018 11:00 2,7 C 9,8 C 3,0 C 50 % 0 lf 1023,7 hPa 0,0 l/m 1,00 h 0,00 h 470 W/m 36,1 km/h (5 Bft) 98,15 %
24.02.2018 12:00 4,0 C 10,4 C 2,7 C 47 % 0 lf 1023,6 hPa 0,0 l/m 1,00 h 0,00 h 506 W/m 38,2 km/h (5 Bft) 94,32 %
24.02.2018 13:00 5,1 C 12,2 C 2,9 C 50 % 0 lf 1023,4 hPa 0,0 l/m 1,00 h 0,00 h 489 W/m 37,1 km/h (5 Bft) 97,64 %
24.02.2018 14:00 5,2 C 10,0 C 3,6 C 53 % 0 lf 1023,1 hPa 0,0 l/m 1,00 h 0,00 h 410 W/m 42,0 km/h (6 Bft) 97,27 %
24.02.2018 15:00 4,0 C 6,7 C 3,2 C 58 % 0 lf 1023,2 hPa 0,0 l/m 1,00 h 0,00 h 294 W/m 47,8 km/h (6 Bft) 95,34 %
24.02.2018 16:00 3,2 C 4,3 C 2,0 C 59 % 0 lf 1023,4 hPa 0,0 l/m 1,00 h 0,00 h 186 W/m 44,5 km/h (6 Bft) 96,23 %
24.02.2018 17:00 1,5 C 1,2 C -0,5 C 64 % 0 lf 1023,8 hPa 0,0 l/m 0,03 h 0,00 h 33 W/m 39,9 km/h (6 Bft) 95,95 %
24.02.2018 18:00 0,4 C -0,0 C -1,7 C 67 % 0 lf 1024,3 hPa 0,0 l/m 0,00 h 0,00 h 6 W/m 33,4 km/h (5 Bft) 98,10 %
24.02.2018 19:00 -0,1 C -0,5 C -2,1 C 65 % 0 lf 1024,7 hPa 0,0 l/m 0,00 h 0,00 h 0 W/m 28,6 km/h (4 Bft) 94,66 %
24.02.2018 20:00 -0,5 C -1,0 C -2,6 C 62 % 0 lf 1025,0 hPa 0,0 l/m 0,00 h 0,00 h 0 W/m 29,2 km/h (5 Bft) 96,78 %
24.02.2018 21:00 -1,0 C -1,3 C -3,0 C 62 % 0 lf 1025,2 hPa 0,0 l/m 0,00 h 0,00 h 0 W/m 30,3 km/h (5 Bft) 96,41 %
24.02.2018 22:00 -1,4 C -1,9 C -3,7 C 64 % 0 lf 1025,5 hPa 0,0 l/m 0,00 h 0,00 h 0 W/m 26,4 km/h (4 Bft) 98,96 %
24.02.2018 23:00 -2,0 C -2,6 C -4,3 C 65 % 0 lf 1025,9 hPa 0,0 l/m 0,00 h 0,00 h 0 W/m 23,9 km/h (4 Bft) 93,68 %
25.02.2018 00:00 -2,5 C -3,0 C -4,6 C 66 % 0 lf 1026,0 hPa 0,0 l/m 0,00 h 0,00 h 0 W/m 22,3 km/h (4 Bft) 96,75 %
25.02.2018 01:00 -3,0 C -3,4 C -5,0 C 67 % 0 lf 1026,2 hPa 0,0 l/m 0,00 h 0,00 h 0 W/m 23,0 km/h (4 Bft) 97,58 %
25.02.2018 02:00 -3,4 C -3,9 C -5,5 C 67 % 0 lf 1026,5 hPa 0,0 l/m 0,00 h 0,00 h 0 W/m 22,5 km/h (4 Bft) 95,94 %
25.02.2018 03:00 -3,8 C -4,3 C -5,9 C 68 % 0 lf 1026,5 hPa 0,0 l/m 0,00 h 0,00 h 0 W/m 21,3 km/h (4 Bft) 96,86 %
25.02.2018 04:00 -4,2 C -4,5 C -6,0 C 69 % 0 lf 1026,8 hPa 0,0 l/m 0,00 h 0,00 h 0 W/m 21,0 km/h (4 Bft) 95,73 %
25.02.2018 05:00 -4,6 C -4,9 C -6,4 C 70 % 0 lf 1027,4 hPa 0,0 l/m 0,00 h 0,00 h 0 W/m 23,6 km/h (4 Bft) 96,55 %
25.02.2018 06:00 -5,0 C -5,2 C -6,7 C 70 % 0 lf 1027,8 hPa 0,0 l/m 0,00 h 0,00 h 0 W/m 22,9 km/h (4 Bft) 97,00 %
25.02.2018 07:00 -5,2 C -5,4 C -6,7 C 69 % 0 lf 1027,9 hPa 0,0 l/m 0,00 h 0,00 h 13 W/m 22,9 km/h (4 Bft) 98,37 %
25.02.2018 08:00 -5,2 C -5,0 C -6,1 C 69 % 0 lf 1028,5 hPa 0,0 l/m 0,90 h 0,00 h 103 W/m 27,2 km/h (4 Bft) 94,95 %
25.02.2018 09:00 -3,7 C 1,2 C -3,4 C 65 % 0 lf 1028,9 hPa 0,0 l/m 1,00 h 0,00 h 273 W/m 27,6 km/h (4 Bft) 95,66 %
25.02.2018 10:00 -2,0 C 4,6 C -2,1 C 58 % 0 lf 1029,0 hPa 0,0 l/m 1,00 h 0,00 h 402 W/m 26,7 km/h (4 Bft) 98,44 %
25.02.2018 11:00 -0,6 C 7,6 C 0,3 C 53 % 0 lf 1028,8 hPa 0,0 l/m 1,00 h 0,00 h 487 W/m 25,2 km/h (4 Bft) 96,23 %
25.02.2018 12:00 1,0 C 9,1 C -0,2 C 47 % 0 lf 1028,2 hPa 0,0 l/m 1,00 h 0,00 h 522 W/m 26,5 km/h (4 Bft) 96,40 %
25.02.2018 13:00 1,5 C 8,9 C -0,2 C 46 % 0 lf 1027,6 hPa 0,0 l/m 1,00 h 0,00 h 508 W/m 29,4 km/h (5 Bft) 97,00 %
25.02.2018 14:00 2,1 C 9,0 C 0,7 C 43 % 0 lf 1027,1 hPa 0,0 l/m 1,00 h 0,00 h 441 W/m 28,2 km/h (4 Bft) 97,87 %
25.02.2018 15:00 2,0 C 7,0 C 0,1 C 41 % 0 lf 1026,8 hPa 0,0 l/m 1,00 h 0,00 h 331 W/m 32,0 km/h (5 Bft) 97,88 %
25.02.2018 16:00 1,0 C 2,5 C -1,0 C 42 % 0 lf 1026,6 hPa 0,0 l/m 1,00 h 0,00 h 167 W/m 33,4 km/h (5 Bft) 94,10 %
25.02.2018 17:00 -0,4 C -0,7 C -2,3 C 46 % 0 lf 1026,6 hPa 0,0 l/m 0,03 h 0,00 h 34 W/m 33,2 km/h (5 Bft) 96,52 %
25.02.2018 18:00 -1,5 C -2,1 C -3,7 C 53 % 0 lf 1027,0 hPa 0,0 l/m 0,00 h 0,00 h 7 W/m 28,9 km/h (5 Bft) 95,42 %
25.02.2018 19:00 -1,8 C -1,8 C -3,1 C 56 % 0 lf 1027,1 hPa 0,0 l/m 0,00 h 0,00 h 0 W/m 31,8 km/h (5 Bft) 95,25 %
25.02.2018 20:00 -2,1 C -2,4 C -3,5 C 60 % 0 lf 1027,4 hPa 0,0 l/m 0,00 h 0,00 h 0 W/m 39,4 km/h (6 Bft) 97,10 %
25.02.2018 21:00 -2,7 C -2,9 C -4,1 C 64 % 0 lf 1027,8 hPa 0,0 l/m 0,00 h 0,00 h 0 W/m 32,3 km/h (5 Bft) 97,81 %
25.02.2018 22:00 -3,2 C -3,6 C -4,9 C 64 % 0 lf 1028,0 hPa 0,0 l/m 0,00 h 0,00 h 0 W/m 32,4 km/h (5 Bft) 95,69 %
25.02.2018 23:00 -3,7 C -4,0 C -5,6 C 68 % 0 lf 1028,1 hPa 0,0 l/m 0,00 h 0,00 h 0 W/m 32,8 km/h (5 Bft) 96,94 %
Min-Datum _ 25.02.18 24.02.18 24.02.18 25.02.18 19.02.18 20.02.18 - - - - 19.02.18 22.02.18
_ Min-Zeit 07:42 04:08 04:08 15:30 00:00 01:44 - - - - 17:34 00:02
Minimum _ -5,3 C -5,6 C -7,2 C 40 % 0 lf 1015,9 hPa - - - - 0,0 km/h (0 Bft) 14,29 %
Max-Datum _ 20.02.18 20.02.18 20.02.18 20.02.18 20.02.18 25.02.18 19.02.18 20.02.18 19.02.18 20.02.18 24.02.18 19.02.18
_ Max-Zeit 13:38 12:16 13:30 09:56 04:30 09:48 00:00 12:08 00:00 13:28 15:52 00:08
Maximum _ 6,5 C 17,8 C 6,7 C 96 % 15 lf 1029,1 hPa 0,0 l/m 0,07 h 0,00 h 570 W/m 67,6 km/h
O (8 Bft)
100,00 %
Durchschnitt _ 0,2 C 1,4 C -1,5 C 73 % 0 lf 1021,9 hPa #0,0 l/m #54:40 h #0 min. 234 W/m 19,4 km/h (3 Bft) 96,44 %
© 2018 W. Hausmann